Time;durP1;ratioP1;P1;durP2;ratioP2;P2;SDS_P1;SDS_P2;PMS_P1;PMS_P2;Temp;Humidity;BMP_temperature;BMP_pressure;BME280_temperature;BME280_humidity;BME280_pressure;Samples;Min_cycle;Max_cycle;Signal;HPM_P1;HPM_P2
2021/06/03 00:00:33;;;;;;;9.70;6.10;;;12.20;99.90;;;;;;5032575;28;20269;-85
2021/06/03 00:03:01;;;;;;;13.83;6.30;;;12.20;99.90;;;;;;5033163;28;20262;-85
2021/06/03 00:05:31;;;;;;;11.67;6.20;;;12.10;99.90;;;;;;5033662;28;20204;-85
2021/06/03 00:07:59;;;;;;;14.73;6.17;;;12.00;99.90;;;;;;5034571;28;20228;-85
2021/06/03 00:10:28;;;;;;;12.00;5.87;;;11.90;99.90;;;;;;5034767;28;20861;-85
2021/06/03 00:12:56;;;;;;;9.23;6.10;;;11.90;99.90;;;;;;5037198;28;20220;-84
2021/06/03 00:15:23;;;;;;;13.27;7.70;;;11.80;99.90;;;;;;5033147;28;21243;-84
2021/06/03 00:17:49;;;;;;;10.20;6.53;;;11.70;99.90;;;;;;5028945;28;20207;-84
2021/06/03 00:20:19;;;;;;;14.33;7.20;;;11.70;99.90;;;;;;5025569;28;22164;-85
2021/06/03 00:22:46;;;;;;;10.07;6.60;;;11.70;99.90;;;;;;5031065;28;20302;-84
2021/06/03 00:25:13;;;;;;;13.13;6.57;;;11.70;99.90;;;;;;5031984;28;20235;-84
2021/06/03 00:27:40;;;;;;;11.90;7.00;;;11.60;99.90;;;;;;5022674;28;20677;-85
2021/06/03 00:30:08;;;;;;;10.23;6.80;;;11.60;99.90;;;;;;5034239;28;20207;-84
2021/06/03 00:32:35;;;;;;;9.90;6.93;;;11.60;99.90;;;;;;5034467;28;20211;-83
2021/06/03 00:35:02;;;;;;;12.63;7.37;;;11.60;99.90;;;;;;5039853;28;20211;-84
2021/06/03 00:37:28;;;;;;;11.57;6.87;;;11.50;99.90;;;;;;5038133;28;20605;-85
2021/06/03 00:39:56;;;;;;;12.63;7.20;;;11.60;99.90;;;;;;5044215;28;20211;-83
2021/06/03 00:42:24;;;;;;;11.30;7.00;;;11.50;99.90;;;;;;5050385;28;20305;-84
2021/06/03 00:44:51;;;;;;;12.20;7.10;;;11.40;99.90;;;;;;5051681;28;20235;-85
2021/06/03 00:47:17;;;;;;;13.70;7.57;;;11.40;99.90;;;;;;5034669;28;20242;-84
2021/06/03 00:49:44;;;;;;;12.03;6.90;;;11.40;99.90;;;;;;5031668;28;20235;-85
2021/06/03 00:52:11;;;;;;;11.87;7.33;;;11.40;99.90;;;;;;5033726;28;20208;-84
2021/06/03 00:54:37;;;;;;;9.80;6.93;;;11.40;99.90;;;;;;5031736;28;20223;-85
2021/06/03 00:57:06;;;;;;;13.60;6.67;;;11.30;99.90;;;;;;5034578;28;20204;-84
2021/06/03 00:59:33;;;;;;;13.20;7.90;;;11.20;99.90;;;;;;5031547;28;20211;-84
2021/06/03 01:01:59;;;;;;;11.13;7.00;;;11.20;99.90;;;;;;5032083;28;20208;-85
2021/06/03 01:04:26;;;;;;;17.73;7.10;;;11.20;99.90;;;;;;5034483;28;20227;-83
2021/06/03 01:06:52;;;;;;;11.17;6.80;;;11.10;99.90;;;;;;5033012;28;20589;-85
2021/06/03 01:09:23;;;;;;;11.40;7.13;;;11.00;99.90;;;;;;5030714;28;20203;-84
2021/06/03 01:11:56;;;;;;;12.60;8.30;;;11.00;99.90;;;;;;5030491;28;20207;-83
2021/06/03 01:14:26;;;;;;;11.53;7.37;;;10.90;99.90;;;;;;5031409;28;20236;-83
2021/06/03 01:16:55;;;;;;;13.07;7.33;;;10.80;99.90;;;;;;5032260;28;20203;-84
2021/06/03 01:19:24;;;;;;;14.00;7.90;;;10.80;99.90;;;;;;5026940;28;20207;-84
2021/06/03 01:21:55;;;;;;;13.87;7.30;;;10.80;99.90;;;;;;5030825;28;20290;-85
2021/06/03 01:24:27;;;;;;;11.87;6.87;;;10.70;99.90;;;;;;5034349;28;20234;-84
2021/06/03 01:26:56;;;;;;;11.90;7.37;;;10.70;99.90;;;;;;5034648;28;20820;-85
2021/06/03 01:29:23;;;;;;;21.43;7.70;;;10.60;99.90;;;;;;5033361;28;20196;-85
2021/06/03 01:31:51;;;;;;;11.40;7.17;;;10.60;99.90;;;;;;5032419;28;20199;-84
2021/06/03 01:34:19;;;;;;;11.47;7.40;;;10.50;99.90;;;;;;5036324;28;20223;-85
2021/06/03 01:36:48;;;;;;;13.00;7.10;;;10.50;99.90;;;;;;5034877;28;20196;-85
2021/06/03 01:39:15;;;;;;;12.57;7.13;;;10.50;99.90;;;;;;5033276;28;20207;-85
2021/06/03 01:41:43;;;;;;;12.57;7.50;;;10.40;99.90;;;;;;5035198;28;20204;-84
2021/06/03 01:44:10;;;;;;;11.60;7.63;;;10.40;99.90;;;;;;5033227;28;20235;-85
2021/06/03 01:46:37;;;;;;;10.23;7.27;;;;;;;;;;5034276;28;20199;-85
2021/06/03 01:49:04;;;;;;;12.50;7.80;;;;;;;;;;5034440;28;20203;-85
2021/06/03 01:51:31;;;;;;;12.43;7.73;;;;;;;;;;5033506;28;20205;-85
2021/06/03 01:53:58;;;;;;;11.73;7.63;;;;;;;;;;5035257;28;20228;-85
2021/06/03 01:56:25;;;;;;;11.60;7.33;;;;;;;;;;5035480;28;20207;-83
2021/06/03 01:58:54;;;;;;;10.97;7.77;;;;;;;;;;5035308;28;20200;-84
2021/06/03 02:01:21;;;;;;;12.67;8.13;;;;;;;;;;5032848;28;20199;-84
2021/06/03 02:03:48;;;;;;;9.37;6.70;;;;;;;;;;5035001;28;20247;-85
2021/06/03 02:06:14;;;;;;;11.73;7.10;;;;;;;;;;5035099;28;20200;-84
2021/06/03 02:08:41;;;;;;;14.70;8.07;;;;;;;;;;5034572;28;20204;-85
2021/06/03 02:11:09;;;;;;;12.53;7.70;;;;;;;;;;5036594;28;20204;-85
2021/06/03 02:13:37;;;;;;;12.23;7.57;;;;;;;;;;5038270;28;20236;-86
2021/06/03 02:16:10;;;;;;;14.60;7.73;;;;;;;;;;5033954;28;20207;-85
2021/06/03 02:18:38;;;;;;;14.53;7.40;;;;;;;;;;5034861;28;20203;-84
2021/06/03 02:21:06;;;;;;;10.33;7.10;;;;;;;;;;5047111;28;20202;-83
2021/06/03 02:23:34;;;;;;;15.47;7.63;;;;;;;;;;5053015;28;20207;-83
2021/06/03 02:26:01;;;;;;;10.40;7.40;;;;;;;;;;5048467;28;20199;-85
2021/06/03 02:28:28;;;;;;;13.80;7.67;;;;;;;;;;5033108;28;20634;-85
2021/06/03 02:30:55;;;;;;;12.50;7.80;;;;;;;;;;5029306;28;20245;-84
2021/06/03 02:33:24;;;;;;;14.27;7.67;;;;;;;;;;5032011;28;20231;-83
2021/06/03 02:35:51;;;;;;;11.23;7.50;;;;;;;;;;5028291;28;20201;-85
2021/06/03 02:38:21;;;;;;;9.90;7.60;;;;;;;;;;5031827;28;20216;-83
2021/06/03 02:40:48;;;;;;;13.07;7.80;;;;;;;;;;5031169;28;20212;-83
2021/06/03 02:43:15;;;;;;;10.40;7.47;;;;;;;;;;5031500;28;20246;-84
2021/06/03 02:45:42;;;;;;;12.57;8.00;;;;;;;;;;5027605;28;20590;-84
2021/06/03 02:48:08;;;;;;;12.30;7.30;;;;;;;;;;5032114;28;20200;-85
2021/06/03 02:50:37;;;;;;;12.13;7.97;;;;;;;;;;5029586;28;20248;-84
2021/06/03 02:53:03;;;;;;;9.30;6.77;;;;;;;;;;5027894;28;20234;-84
2021/06/03 02:55:31;;;;;;;12.43;7.50;;;;;;;;;;5030278;28;20249;-84
2021/06/03 02:57:58;;;;;;;12.80;7.27;;;;;;;;;;5030729;28;20595;-83
2021/06/03 03:00:26;;;;;;;10.47;7.60;;;;;;;;;;5029214;28;20199;-83
2021/06/03 03:02:53;;;;;;;13.07;7.20;;;;;;;;;;5030385;28;20227;-83
2021/06/03 03:05:20;;;;;;;12.50;7.23;;;;;;;;;;5033065;28;20203;-84
2021/06/03 03:07:48;;;;;;;12.97;7.53;;;;;;;;;;5030206;28;20219;-84
2021/06/03 03:10:19;;;;;;;11.70;7.60;;;;;;;;;;5033321;28;20829;-84
2021/06/03 03:12:45;;;;;;;13.00;7.50;;;;;;;;;;5034297;28;20227;-85
2021/06/03 03:15:14;;;;;;;12.93;7.30;;;;;;;;;;5034733;28;20211;-83
2021/06/03 03:17:41;;;;;;;11.13;7.03;;;;;;;;;;5031580;28;20226;-84
2021/06/03 03:20:10;;;;;;;12.57;7.37;;;;;;;;;;5031459;28;20203;-83
2021/06/03 03:22:37;;;;;;;13.00;7.17;;;;;;;;;;5030764;28;20208;-84
2021/06/03 03:25:06;;;;;;;13.17;7.70;;;;;;;;;;5032612;28;20232;-85
2021/06/03 03:27:33;;;;;;;17.33;7.87;;;;;;;;;;5029718;28;20277;-84
2021/06/03 03:29:59;;;;;;;12.67;7.27;;;;;;;;;;5026028;28;20215;-83
2021/06/03 03:32:26;;;;;;;11.90;7.50;;;;;;;;;;5028428;28;20211;-84
2021/06/03 03:34:53;;;;;;;13.20;7.30;;;;;;;;;;5031765;28;20223;-85
2021/06/03 03:37:20;;;;;;;10.93;6.90;;;;;;;;;;5032924;28;20218;-83
2021/06/03 03:39:47;;;;;;;11.33;7.60;;;;;;;;;;5032931;28;20219;-84
2021/06/03 03:42:15;;;;;;;11.20;7.40;;;;;;;;;;5037060;28;20200;-85
2021/06/03 03:44:41;;;;;;;13.07;7.30;;;;;;;;;;5030507;28;20275;-85
2021/06/03 03:47:08;;;;;;;11.33;7.77;;;;;;;;;;5032804;28;20199;-84
2021/06/03 03:49:35;;;;;;;10.57;6.90;;;;;;;;;;5029985;28;20212;-84
2021/06/03 03:52:03;;;;;;;12.20;7.70;;;;;;;;;;5024081;28;20223;-84
2021/06/03 03:54:30;;;;;;;10.00;7.20;;;;;;;;;;5024042;28;20230;-85
2021/06/03 03:56:57;;;;;;;10.17;6.83;;;;;;;;;;5021997;28;20208;-84
2021/06/03 03:59:25;;;;;;;9.77;6.27;;;;;;;;;;5033958;28;20202;-83
2021/06/03 04:01:53;;;;;;;13.50;5.83;;;;;;;;;;5044379;28;20198;-82
2021/06/03 04:04:20;;;;;;;7.50;5.57;;;;;;;;;;5052932;28;20304;-82
2021/06/03 04:06:47;;;;;;;11.33;5.80;;;;;;;;;;5038660;28;20276;-83
2021/06/03 04:09:14;;;;;;;9.73;6.30;;;;;;;;;;5031514;28;20196;-84
2021/06/03 04:11:41;;;;;;;11.93;6.20;;;;;;;;;;5027303;28;20254;-85
2021/06/03 04:14:07;;;;;;;12.83;6.20;;;;;;;;;;5032767;28;20223;-84
2021/06/03 04:16:36;;;;;;;13.07;5.70;;;;;;;;;;5030402;28;20211;-85
2021/06/03 04:19:03;;;;;;;9.83;5.57;;;;;;;;;;5030403;28;20275;-84
2021/06/03 04:21:30;;;;;;;8.50;5.67;;;;;;;;;;5028847;28;20254;-83
2021/06/03 04:23:56;;;;;;;8.33;6.33;;;;;;;;;;5030562;28;20346;-86
2021/06/03 04:26:23;;;;;;;7.80;5.63;;;;;;;;;;5030327;28;20200;-84
2021/06/03 04:28:50;;;;;;;8.83;5.67;;;;;;;;;;5030174;28;20192;-84
2021/06/03 04:31:17;;;;;;;9.67;5.67;;;;;;;;;;5028009;28;20246;-85
2021/06/03 04:33:45;;;;;;;14.03;5.40;;;;;;;;;;5034351;28;20262;-85
2021/06/03 04:36:12;;;;;;;7.40;5.17;;;;;;;;;;5032687;28;20211;-84
2021/06/03 04:38:39;;;;;;;8.90;5.53;;;;;;;;;;5032355;28;20204;-85
2021/06/03 04:41:06;;;;;;;8.90;5.70;;;;;;;;;;5038020;28;20241;-85
2021/06/03 04:43:33;;;;;;;6.17;4.93;;;;;;;;;;5029837;28;20635;-84
2021/06/03 04:45:59;;;;;;;10.07;5.03;;;;;;;;;;5035076;28;20280;-85
2021/06/03 04:48:26;;;;;;;9.23;5.07;;;;;;;;;;5035417;28;20207;-85
2021/06/03 04:50:54;;;;;;;9.10;5.07;;;;;;;;;;5030427;28;20591;-85
2021/06/03 04:53:21;;;;;;;6.40;4.50;;;;;;;;;;5034674;28;20227;-85
2021/06/03 04:55:48;;;;;;;9.00;5.10;;;;;;;;;;5032998;28;20200;-84
2021/06/03 04:58:15;;;;;;;11.60;5.20;;;;;;;;;;5033945;28;20214;-85
2021/06/03 05:00:42;;;;;;;9.40;4.93;;;;;;;;;;5031874;28;20210;-84
2021/06/03 05:03:10;;;;;;;7.33;5.00;;;;;;;;;;5034311;28;20231;-84
2021/06/03 05:05:37;;;;;;;6.93;4.50;;;;;;;;;;5033570;28;20669;-85
2021/06/03 05:08:07;;;;;;;8.33;4.47;;;;;;;;;;5030391;28;20210;-86
2021/06/03 05:10:35;;;;;;;5.80;4.60;;;10.40;99.90;;;;;;5034755;28;20196;-86
2021/06/03 05:13:02;;;;;;;9.80;4.97;;;16.90;99.90;;;;;;5034906;28;20232;-85
2021/06/03 05:15:30;;;;;;;6.00;4.30;;;17.80;99.90;;;;;;5034176;28;20219;-85
2021/06/03 05:17:57;;;;;;;5.43;4.40;;;18.90;99.90;;;;;;5033835;28;20204;-84
2021/06/03 05:20:26;;;;;;;5.20;3.80;;;19.60;99.90;;;;;;5031382;28;20259;-85
2021/06/03 05:22:54;;;;;;;9.20;4.00;;;20.60;99.90;;;;;;5030700;28;20219;-85
2021/06/03 05:25:24;;;;;;;5.90;4.07;;;21.50;99.90;;;;;;5032139;28;20295;-84
2021/06/03 05:27:51;;;;;;;6.93;4.00;;;21.60;99.90;;;;;;5034044;28;20214;-86
2021/06/03 05:30:19;;;;;;;6.07;4.27;;;21.50;99.90;;;;;;5033351;28;20203;-85
2021/06/03 05:32:46;;;;;;;6.90;4.10;;;21.70;99.90;;;;;;5029687;28;20223;-84
2021/06/03 05:35:15;;;;;;;5.33;3.83;;;22.20;99.90;;;;;;5029077;28;20216;-85
2021/06/03 05:37:43;;;;;;;6.90;4.33;;;22.30;99.90;;;;;;5031710;28;20206;-84
2021/06/03 05:40:11;;;;;;;7.13;3.83;;;22.70;99.90;;;;;;5031905;28;20668;-84
2021/06/03 05:42:40;;;;;;;4.73;3.80;;;23.30;99.90;;;;;;5049177;28;20250;-84
2021/06/03 05:45:08;;;;;;;7.03;3.63;;;23.50;99.90;;;;;;5049743;28;20212;-83
2021/06/03 05:47:35;;;;;;;9.73;4.00;;;23.60;99.90;;;;;;5037892;28;20208;-85
2021/06/03 05:50:02;;;;;;;8.17;3.60;;;23.80;99.90;;;;;;5021812;28;20205;-85
2021/06/03 05:52:28;;;;;;;7.40;3.53;;;24.40;99.90;;;;;;5025798;28;20200;-85
2021/06/03 05:54:55;;;;;;;4.47;3.53;;;24.50;99.90;;;;;;5025580;28;20604;-85
2021/06/03 05:57:22;;;;;;;8.40;4.00;;;24.80;99.90;;;;;;5023671;28;20196;-85
2021/06/03 05:59:50;;;;;;;5.80;3.60;;;25.60;99.90;;;;;;5024466;28;20233;-86
2021/06/03 06:02:20;;;;;;;5.67;3.40;;;25.80;99.90;;;;;;5024904;28;20579;-85
2021/06/03 06:07:32;;;;;;;5.10;3.90;;;26.00;99.90;;;;;;5023464;28;20263;-84
2021/06/03 06:09:59;;;;;;;4.37;3.30;;;26.20;99.90;;;;;;5024308;28;20727;-86
2021/06/03 06:12:28;;;;;;;7.23;3.50;;;26.00;99.90;;;;;;5020476;28;20221;-85
2021/06/03 06:14:56;;;;;;;8.97;3.50;;;25.00;99.90;;;;;;5023683;28;20220;-85
2021/06/03 06:17:23;;;;;;;6.53;3.97;;;24.80;99.90;;;;;;5025273;28;20200;-85
2021/06/03 06:19:49;;;;;;;5.53;3.70;;;24.60;99.90;;;;;;5026274;28;20217;-85
2021/06/03 06:22:16;;;;;;;5.43;3.40;;;25.00;99.90;;;;;;5028560;28;20682;-85
2021/06/03 06:24:45;;;;;;;6.37;3.40;;;26.00;99.90;;;;;;5026574;28;20228;-85
2021/06/03 06:27:12;;;;;;;5.77;3.77;;;26.80;99.90;;;;;;5025269;28;20223;-85
2021/06/03 06:29:38;;;;;;;7.77;3.33;;;27.90;99.90;;;;;;5021837;28;20702;-85
2021/06/03 06:32:07;;;;;;;5.63;3.63;;;29.30;99.90;;;;;;5025681;28;20568;-83
2021/06/03 06:34:34;;;;;;;5.23;3.00;;;29.30;99.90;;;;;;5024998;28;20238;-83
2021/06/03 06:37:00;;;;;;;6.37;3.00;;;29.70;99.90;;;;;;5024462;28;20223;-83
2021/06/03 06:39:27;;;;;;;5.93;3.30;;;30.10;99.90;;;;;;5023980;28;20216;-83
2021/06/03 06:41:53;;;;;;;6.35;3.22;;;30.70;99.90;;;;;;5024331;28;20204;-83
2021/06/03 06:44:23;;;;;;;3.97;3.10;;;30.90;99.90;;;;;;5020632;28;20697;-84
2021/06/03 06:46:49;;;;;;;3.53;3.20;;;29.90;99.90;;;;;;5017878;28;20216;-83
2021/06/03 06:49:17;;;;;;;6.83;3.40;;;28.80;99.90;;;;;;5023080;28;20219;-82
2021/06/03 06:51:43;;;;;;;6.13;3.33;;;26.70;99.90;;;;;;5025644;28;20213;-83
2021/06/03 06:54:10;;;;;;;4.80;3.43;;;25.60;99.90;;;;;;5023715;28;20233;-83
2021/06/03 06:56:36;;;;;;;5.27;3.50;;;25.10;99.90;;;;;;5026428;28;20214;-84
2021/06/03 06:59:03;;;;;;;6.37;3.20;;;25.60;99.90;;;;;;5023858;28;20589;-84
2021/06/03 07:01:29;;;;;;;4.67;3.67;;;25.80;99.90;;;;;;5026140;28;20207;-83
2021/06/03 07:03:56;;;;;;;6.53;3.37;;;25.70;99.90;;;;;;5022798;28;20227;-83
2021/06/03 07:06:24;;;;;;;5.23;3.57;;;26.00;99.90;;;;;;5019955;28;20209;-83
2021/06/03 07:08:50;;;;;;;6.27;3.37;;;26.20;99.90;;;;;;5023622;28;20951;-83
2021/06/03 07:11:17;;;;;;;4.57;3.47;;;25.80;99.90;;;;;;5026230;28;20201;-86
2021/06/03 07:13:45;;;;;;;4.97;3.57;;;25.70;99.90;;;;;;5022593;28;20275;-84
2021/06/03 07:16:12;;;;;;;4.83;3.60;;;25.70;99.90;;;;;;5029336;28;20209;-83
2021/06/03 07:18:38;;;;;;;5.47;3.00;;;27.50;99.90;;;;;;5021534;28;20233;-83
2021/06/03 07:21:05;;;;;;;5.10;3.17;;;28.10;99.90;;;;;;5036210;28;20210;-82
2021/06/03 07:23:33;;;;;;;4.97;3.23;;;27.20;99.90;;;;;;5043643;28;20275;-82
2021/06/03 07:25:59;;;;;;;9.43;3.43;;;26.40;99.90;;;;;;5039508;28;20221;-84
2021/06/03 07:28:26;;;;;;;7.30;3.13;;;25.30;99.90;;;;;;5028605;28;20211;-83
2021/06/03 07:30:53;;;;;;;7.43;3.77;;;25.40;99.90;;;;;;5028106;28;20214;-84
2021/06/03 07:33:19;;;;;;;7.20;3.70;;;25.30;99.90;;;;;;5022963;28;20247;-83
2021/06/03 07:35:46;;;;;;;6.60;3.20;;;25.40;99.90;;;;;;5023654;28;20203;-82
2021/06/03 07:38:13;;;;;;;4.17;3.23;;;26.00;99.90;;;;;;5025697;28;20211;-82
2021/06/03 07:40:41;;;;;;;4.67;3.30;;;26.50;99.90;;;;;;5020579;28;20220;-84
2021/06/03 07:43:12;;;;;;;3.53;2.90;;;27.30;99.90;;;;;;5020841;28;20221;-85
2021/06/03 07:45:39;;;;;;;3.90;2.50;;;27.70;99.90;;;;;;5021307;28;20216;-85
2021/06/03 07:48:07;;;;;;;4.53;2.80;;;27.80;99.90;;;;;;5023224;28;20205;-83
2021/06/03 07:50:35;;;;;;;4.93;2.77;;;28.80;99.90;;;;;;5025276;28;20214;-84
2021/06/03 07:53:05;;;;;;;5.87;2.50;;;29.00;99.90;;;;;;5021513;28;20781;-84
2021/06/03 07:55:31;;;;;;;3.13;2.60;;;28.40;99.90;;;;;;5026226;28;20215;-83
2021/06/03 07:58:01;;;;;;;2.60;2.40;;;28.30;99.90;;;;;;5025606;28;20208;-85
2021/06/03 08:00:30;;;;;;;3.27;2.17;;;28.10;99.90;;;;;;5026064;28;20207;-84
2021/06/03 08:02:57;;;;;;;5.43;2.47;;;28.10;99.90;;;;;;5021729;28;20653;-85
2021/06/03 08:05:26;;;;;;;4.27;2.37;;;28.90;99.90;;;;;;5024074;28;20239;-85
2021/06/03 08:07:54;;;;;;;3.53;2.43;;;30.20;99.90;;;;;;5020044;28;20211;-84
2021/06/03 08:10:25;;;;;;;4.57;2.42;;;32.10;99.90;;;;;;5017027;28;20887;-85
2021/06/03 08:12:52;;;;;;;3.22;2.30;;;33.40;99.90;;;;;;5020580;28;20222;-85
2021/06/03 08:15:22;;;;;;;2.90;1.98;;;33.90;99.90;;;;;;5017503;28;20210;-85
2021/06/03 08:17:49;;;;;;;4.25;2.03;;;34.30;99.20;;;;;;5026798;28;20222;-85
2021/06/03 08:20:21;;;;;;;3.67;2.10;;;35.50;97.70;;;;;;5022239;28;20212;-85
2021/06/03 08:22:48;;;;;;;3.28;1.92;;;35.80;97.00;;;;;;5018440;28;20263;-85
2021/06/03 08:25:17;;;;;;;2.85;1.63;;;36.00;96.20;;;;;;5026677;28;20220;-85
2021/06/03 08:27:44;;;;;;;2.63;1.98;;;36.40;95.40;;;;;;5020204;28;20198;-85
2021/06/03 08:30:13;;;;;;;3.85;1.80;;;36.90;94.30;;;;;;5020857;28;20694;-85
2021/06/03 08:32:43;;;;;;;1.95;1.50;;;37.00;94.00;;;;;;5023431;28;20220;-86
2021/06/03 08:35:14;;;;;;;2.78;1.50;;;36.70;93.40;;;;;;5019444;28;20269;-85
2021/06/03 08:37:41;;;;;;;1.88;1.67;;;36.50;93.30;;;;;;5026444;28;20211;-85
2021/06/03 08:40:09;;;;;;;2.75;1.77;;;35.90;93.30;;;;;;5023533;28;20216;-84
2021/06/03 08:42:35;;;;;;;2.40;1.80;;;33.90;94.90;;;;;;5022754;28;20700;-83
2021/06/03 08:45:03;;;;;;;2.38;1.70;;;32.90;95.80;;;;;;5023457;28;20646;-84
2021/06/03 08:47:32;;;;;;;2.95;1.95;;;31.60;97.10;;;;;;5023685;28;20209;-83
2021/06/03 08:50:00;;;;;;;2.35;1.90;;;30.40;99.30;;;;;;5026837;28;20224;-84
2021/06/03 08:52:27;;;;;;;5.13;2.10;;;30.10;99.30;;;;;;5032290;28;20219;-84
2021/06/03 08:54:55;;;;;;;3.47;2.10;;;30.00;99.90;;;;;;5033455;28;20213;-85
2021/06/03 08:57:23;;;;;;;2.97;2.17;;;29.50;99.90;;;;;;5038067;28;20624;-83
2021/06/03 08:59:51;;;;;;;4.03;1.80;;;29.00;99.90;;;;;;5045383;28;20183;-82
2021/06/03 09:02:18;;;;;;;3.97;1.90;;;28.50;99.90;;;;;;5043204;28;20206;-83
2021/06/03 09:04:45;;;;;;;4.77;2.23;;;28.10;99.90;;;;;;5033992;28;20244;-83
2021/06/03 09:07:32;;;;;;;3.43;1.93;;;28.10;99.90;;;;;;5035761;28;20646;-85
2021/06/03 09:10:27;;;;;;;4.13;1.97;;;28.20;99.90;;;;;;5029708;28;20214;-84
2021/06/03 09:13:11;;;;;;;3.03;2.20;;;28.40;99.90;;;;;;5028356;28;20690;-83
2021/06/03 09:15:40;;;;;;;2.67;1.90;;;28.40;99.90;;;;;;5030236;28;21129;-84
2021/06/03 09:18:09;;;;;;;2.20;1.70;;;28.30;99.90;;;;;;5029198;28;20211;-84
2021/06/03 09:20:36;;;;;;;2.87;2.00;;;28.60;99.90;;;;;;5034777;28;20710;-83
2021/06/03 09:23:03;;;;;;;2.33;1.83;;;28.80;99.90;;;;;;5027681;28;20294;-83
2021/06/03 09:25:37;;;;;;;4.90;1.90;;;29.00;99.90;;;;;;5028453;28;20224;-83
2021/06/03 09:28:25;;;;;;;6.13;2.10;;;29.20;99.90;;;;;;5029395;28;20683;-84
2021/06/03 09:31:09;;;;;;;2.40;1.80;;;28.70;99.90;;;;;;5027390;28;20209;-83
2021/06/03 09:33:41;;;;;;;3.23;1.90;;;28.40;99.90;;;;;;5022956;28;20231;-84
2021/06/03 09:36:10;;;;;;;3.73;2.10;;;28.40;99.90;;;;;;5033290;28;20575;-85
2021/06/03 09:38:51;;;;;;;2.03;1.70;;;28.20;99.90;;;;;;5023626;28;20209;-84
2021/06/03 09:41:20;;;;;;;2.33;1.70;;;28.30;99.90;;;;;;5024406;28;20654;-82
2021/06/03 09:43:46;;;;;;;2.60;1.77;;;28.40;99.90;;;;;;5024864;28;20234;-83
2021/06/03 09:46:16;;;;;;;3.23;1.50;;;28.20;99.90;;;;;;5029145;28;20199;-84
2021/06/03 09:48:44;;;;;;;2.70;1.90;;;28.30;99.90;;;;;;5029203;28;20214;-85
2021/06/03 09:51:20;;;;;;;2.33;1.70;;;28.50;99.90;;;;;;5021972;28;20197;-84
2021/06/03 09:53:58;;;;;;;3.17;2.13;;;28.40;99.90;;;;;;5020473;28;20228;-84
2021/06/03 09:56:28;;;;;;;7.07;2.60;;;28.60;99.90;;;;;;5022027;28;20228;-84
2021/06/03 09:58:55;;;;;;;2.70;1.60;;;28.60;99.90;;;;;;5028413;28;20196;-85
2021/06/03 10:01:44;;;;;;;2.60;1.70;;;28.30;99.90;;;;;;5030475;28;20212;-83
2021/06/03 10:04:12;;;;;;;4.50;1.63;;;28.40;99.90;;;;;;5022432;28;20630;-83
2021/06/03 10:07:17;;;;;;;3.87;1.77;;;28.60;99.90;;;;;;5029806;28;20263;-84
2021/06/03 10:09:49;;;;;;;2.77;1.77;;;28.60;99.90;;;;;;5029424;28;20239;-84
2021/06/03 10:12:29;;;;;;;5.57;1.50;;;28.50;99.90;;;;;;5032588;28;20195;-83
2021/06/03 10:15:05;;;;;;;3.73;1.70;;;28.40;99.90;;;;;;5031400;28;20204;-84
2021/06/03 10:17:33;;;;;;;4.40;1.70;;;28.60;99.90;;;;;;5030580;28;20258;-83
2021/06/03 10:20:03;;;;;;;20.23;10.53;;;28.40;99.90;;;;;;5034904;28;20200;-84
2021/06/03 10:22:31;;;;;;;4.03;1.90;;;28.30;99.90;;;;;;5038099;28;20520;-85
2021/06/03 10:25:07;;;;;;;2.43;1.60;;;28.40;99.90;;;;;;5042224;28;20232;-86
2021/06/03 10:27:37;;;;;;;25.07;13.23;;;28.60;99.90;;;;;;5037988;28;20215;-85
2021/06/03 10:30:09;;;;;;;4.13;1.90;;;28.70;99.90;;;;;;5038187;28;20703;-86
2021/06/03 10:32:36;;;;;;;2.43;1.70;;;28.80;99.90;;;;;;5040197;28;20542;-85
2021/06/03 10:35:06;;;;;;;1.90;1.30;;;28.90;99.90;;;;;;5048232;28;20205;-85
2021/06/03 10:37:33;;;;;;;4.27;1.57;;;28.70;99.90;;;;;;5045676;28;20211;-83
2021/06/03 10:40:01;;;;;;;3.10;1.60;;;28.50;99.90;;;;;;5041152;28;20214;-84
2021/06/03 10:42:27;;;;;;;3.40;1.60;;;28.80;99.90;;;;;;5041610;28;20529;-83
2021/06/03 10:44:58;;;;;;;3.50;1.80;;;29.10;99.90;;;;;;5040763;28;20268;-85
2021/06/03 10:47:25;;;;;;;2.93;1.70;;;29.40;99.90;;;;;;5035250;28;20237;-84
2021/06/03 10:49:52;;;;;;;2.40;1.80;;;29.40;99.90;;;;;;5034361;28;20233;-84
2021/06/03 10:52:21;;;;;;;4.13;1.67;;;28.70;99.90;;;;;;5033498;28;20224;-86
2021/06/03 10:54:50;;;;;;;5.97;1.90;;;28.70;99.90;;;;;;5032494;28;20981;-86
2021/06/03 10:57:20;;;;;;;4.00;1.70;;;28.60;99.90;;;;;;5035466;28;20235;-85
2021/06/03 10:59:48;;;;;;;2.17;1.67;;;28.80;99.90;;;;;;5038686;28;20309;-84
2021/06/03 11:02:16;;;;;;;2.97;1.50;;;29.20;99.90;;;;;;5039406;28;20211;-84
2021/06/03 11:04:45;;;;;;;2.77;1.70;;;29.10;99.90;;;;;;5036653;28;20232;-85
2021/06/03 11:07:13;;;;;;;3.17;1.83;;;29.10;99.90;;;;;;5035770;28;20201;-85
2021/06/03 11:09:42;;;;;;;2.90;1.90;;;28.80;99.90;;;;;;5034527;28;20208;-84
2021/06/03 11:12:14;;;;;;;2.90;1.70;;;28.50;99.90;;;;;;5035658;28;20203;-84
2021/06/03 11:15:00;;;;;;;3.67;1.80;;;28.50;99.90;;;;;;5032983;28;20220;-85
2021/06/03 11:17:50;;;;;;;6.10;2.00;;;28.70;99.90;;;;;;5032319;28;20681;-83
2021/06/03 11:20:32;;;;;;;3.60;1.80;;;28.50;99.90;;;;;;5035172;28;20232;-85
2021/06/03 11:22:58;;;;;;;4.73;1.63;;;28.40;99.90;;;;;;5029319;28;20235;-84
2021/06/03 11:25:37;;;;;;;2.47;1.60;;;28.30;99.90;;;;;;5030203;28;20251;-84
2021/06/03 11:28:20;;;;;;;5.13;1.80;;;28.30;99.90;;;;;;5035496;28;20292;-84
2021/06/03 11:30:46;;;;;;;2.83;1.70;;;28.20;99.90;;;;;;5031426;28;20222;-86
2021/06/03 11:33:14;;;;;;;5.07;2.00;;;27.90;99.90;;;;;;5015685;28;20221;-86
2021/06/03 11:35:41;;;;;;;4.10;2.20;;;27.80;99.90;;;;;;5034323;28;20308;-84
2021/06/03 11:38:07;;;;;;;3.10;1.80;;;27.90;99.90;;;;;;5031875;28;20211;-85
2021/06/03 11:40:42;;;;;;;3.97;2.07;;;28.20;99.90;;;;;;5030992;28;20238;-85
2021/06/03 11:43:11;;;;;;;5.57;2.00;;;28.30;99.90;;;;;;5031729;28;20573;-84
2021/06/03 11:45:44;;;;;;;3.63;1.80;;;28.20;99.90;;;;;;5032695;28;20230;-83
2021/06/03 11:48:23;;;;;;;2.90;1.73;;;28.10;99.90;;;;;;5036504;28;20213;-84
2021/06/03 11:51:09;;;;;;;2.20;1.70;;;28.30;99.90;;;;;;5033260;28;20236;-84
2021/06/03 11:53:53;;;;;;;5.17;1.80;;;28.60;99.90;;;;;;5033079;28;20267;-83
2021/06/03 11:56:21;;;;;;;4.63;2.13;;;29.10;99.90;;;;;;5036012;28;20194;-84
2021/06/03 11:58:53;;;;;;;3.73;1.97;;;29.30;99.90;;;;;;5036449;28;20214;-85
2021/06/03 12:01:33;;;;;;;4.10;1.90;;;29.60;99.90;;;;;;5034250;28;20675;-84
2021/06/03 12:04:22;;;;;;;5.37;2.10;;;29.30;99.90;;;;;;5033564;28;20225;-83
2021/06/03 12:06:50;;;;;;;5.67;1.90;;;28.40;99.90;;;;;;5027886;28;20208;-83
2021/06/03 12:09:23;;;;;;;4.03;1.50;;;28.20;99.90;;;;;;5032841;28;20211;-83
2021/06/03 12:11:53;;;;;;;4.43;2.10;;;28.40;99.90;;;;;;5043893;28;20195;-82
2021/06/03 12:14:22;;;;;;;8.73;2.00;;;27.90;99.90;;;;;;5044427;28;21265;-82
2021/06/03 12:16:50;;;;;;;3.83;1.70;;;27.70;99.90;;;;;;5036853;28;20204;-82
2021/06/03 12:19:20;;;;;;;4.73;1.93;;;27.70;99.90;;;;;;5036214;28;20214;-83
2021/06/03 12:21:53;;;;;;;4.27;2.10;;;27.60;99.90;;;;;;5035774;28;20212;-83
2021/06/03 12:24:38;;;;;;;2.07;1.87;;;27.60;99.90;;;;;;5034337;28;20247;-84
2021/06/03 12:27:06;;;;;;;4.87;2.20;;;27.50;99.90;;;;;;5038175;28;20232;-83
2021/06/03 12:29:34;;;;;;;2.90;1.90;;;27.30;99.90;;;;;;5037242;28;20224;-85
2021/06/03 12:32:01;;;;;;;3.47;1.87;;;27.20;99.90;;;;;;5041716;28;20238;-82
2021/06/03 12:34:31;;;;;;;3.80;2.10;;;27.10;99.90;;;;;;5037959;28;20236;-83
2021/06/03 12:36:59;;;;;;;3.10;2.20;;;26.90;99.90;;;;;;5039799;28;20208;-83
2021/06/03 12:39:28;;;;;;;6.07;2.10;;;26.80;99.90;;;;;;5046546;28;20581;-81
2021/06/03 12:41:56;;;;;;;5.90;2.30;;;26.60;99.90;;;;;;5044530;28;20187;-83
2021/06/03 12:44:23;;;;;;;5.63;2.20;;;26.20;99.90;;;;;;5038063;28;20231;-84
2021/06/03 12:46:53;;;;;;;8.13;2.37;;;25.60;99.90;;;;;;5041750;28;20211;-82
2021/06/03 12:49:21;;;;;;;8.93;2.27;;;25.10;99.90;;;;;;5039360;28;20210;-82
2021/06/03 12:51:52;;;;;;;3.90;2.03;;;24.20;99.90;;;;;;5040677;28;20675;-82
2021/06/03 12:54:30;;;;;;;7.00;2.33;;;23.50;99.90;;;;;;5042302;28;21095;-83
2021/06/03 12:56:58;;;;;;;5.13;2.07;;;23.00;99.90;;;;;;5043034;28;20195;-81
2021/06/03 12:59:27;;;;;;;5.90;2.27;;;22.50;99.90;;;;;;5040120;28;20212;-83
2021/06/03 13:01:59;;;;;;;4.53;2.00;;;22.30;99.90;;;;;;5038906;28;20212;-83
2021/06/03 13:04:33;;;;;;;4.67;1.93;;;22.10;99.90;;;;;;5038359;28;20232;-83
2021/06/03 13:07:00;;;;;;;3.77;2.30;;;21.90;99.90;;;;;;5034739;28;20212;-83
2021/06/03 13:09:26;;;;;;;4.93;2.43;;;21.80;99.90;;;;;;5027824;28;20297;-85
2021/06/03 13:15:17;;;;;;;3.87;2.43;;;21.60;99.90;;;;;;5025656;28;20193;-82
2021/06/03 13:17:45;;;;;;;5.50;2.33;;;21.50;99.90;;;;;;5032835;28;20227;-84
2021/06/03 13:20:15;;;;;;;6.77;3.20;;;21.60;99.90;;;;;;5028843;28;20204;-83
2021/06/03 13:22:48;;;;;;;10.40;2.67;;;21.60;99.90;;;;;;5028601;28;21007;-83
2021/06/03 13:25:15;;;;;;;7.23;2.60;;;21.60;99.90;;;;;;5027912;28;20207;-83